Portada
METAR-TAF:

METAR-TAF

Aeroports :

Westfield-Springfield, Massachusetts, Estats Units d'Amèrica

latitud: 42-09-35N, longitud: 072-42-46W, altitud: 82 m

Observació

L'informe es va fer fa 34 minuts, a les 08:53 UTC
Vent calma
Temperatura 5°C
Humitat 93%
Pressió 1018 hPa
Visibilitat: 16.1 km
Cel clar

METAR: KBAF 020853Z AUTO 00000KT 10SM CLR 05/04 A3005 RMK AO2 SLP177 T00500044 55004

Hora: 05:27 (09:27 UTC)

Pronòstic

L'informe es va fer fa 3 hores i 52 minuts, a les 05:35 UTC
Pronòstic vàlid del 02 a les 06 UTC al 03 a les 06 UTC
Vent 3 kt amb direcció variable
Visibilitat: 10 km
Núvols disperses a una alçada de 6000 ft
A partir de les 02 a les 1700 UTC
Vent 5 kt del Oest/Sud-Oest
Visibilitat: 10 km
Cel ennuvolat a una alçada de 6000 ft
A partir de les 03 a les 0500 UTC
Vent 3 kt del Sud/Sud-Oest
Visibilitat: 10 km
Cel ennuvolat a una alçada de 5000 ft
xàfecs en les proximitats

TAF: KBAF 020535Z 0206/0306 VRB03KT P6SM SCT060 FM021700 24005KT P6SM BKN060 FM030500 20003KT P6SM VCSH BKN050

Observacions i pronòstics meteorològics de més de 4000 aeroports (METAR i TAF).

Les estacions disponibles són els punts grocs i vermells al mapa.

Posi el ratolí al punt desitjat per veure el nom de l'estació.

Feu clic per veure les observacions i els pronòstics meteorològics.

Per canviar el mapa: feu clic els botons verds amb una creu de color negre per apropar; al botó verd amb un guió per allunyar la imatge; o en les fletxes verdes per a mapes adjacents.


METAR-TAF: